Time;durP1;ratioP1;P1;durP2;ratioP2;P2;SDS_P1;SDS_P2;PMS_P1;PMS_P2;Temp;Humidity;BMP_temperature;BMP_pressure;BME280_temperature;BME280_humidity;BME280_pressure;Samples;Min_cycle;Max_cycle;Signal;HPM_P1;HPM_P2
2023/12/28 00:00:37;;;;;;;2.47;1.90;;;;;;;9.04;100.00;100691.66;5028513;28;20434;-64
2023/12/28 00:03:03;;;;;;;2.83;2.10;;;;;;;9.05;100.00;100689.09;5021650;28;20087;-64
2023/12/28 00:05:28;;;;;;;2.90;2.00;;;;;;;9.03;100.00;100682.13;5023946;28;20021;-65
2023/12/28 00:07:57;;;;;;;2.67;2.10;;;;;;;9.01;100.00;100695.00;5027807;28;20180;-65
2023/12/28 00:10:26;;;;;;;3.63;2.20;;;;;;;9.00;100.00;100690.66;5026755;28;20031;-65
2023/12/28 00:12:51;;;;;;;6.18;2.25;;;;;;;9.02;100.00;100686.41;5026823;28;20024;-65
2023/12/28 00:15:17;;;;;;;3.72;1.75;;;;;;;9.02;100.00;100696.75;5027711;28;20474;-65
2023/12/28 00:17:42;;;;;;;1.88;1.75;;;;;;;9.00;100.00;100696.72;5027952;28;20276;-65
2023/12/28 00:20:08;;;;;;;1.77;1.60;;;;;;;9.00;100.00;100698.41;5027970;28;20058;-64
2023/12/28 00:22:33;;;;;;;3.88;1.80;;;;;;;9.00;100.00;100693.22;5028123;28;20497;-65
2023/12/28 00:24:59;;;;;;;2.20;1.80;;;;;;;8.96;100.00;100704.31;5028234;28;20024;-63
2023/12/28 00:27:24;;;;;;;2.92;2.10;;;;;;;8.97;100.00;100717.28;5027311;28;20101;-64
2023/12/28 00:29:50;;;;;;;4.03;1.90;;;;;;;8.95;100.00;100710.28;5028080;28;20026;-64
2023/12/28 00:32:15;;;;;;;2.40;2.10;;;;;;;8.99;100.00;100722.50;5027604;28;20111;-65
2023/12/28 00:34:40;;;;;;;2.58;2.05;;;;;;;8.96;100.00;100731.00;5028145;28;20025;-65
2023/12/28 00:37:05;;;;;;;3.78;2.35;;;;;;;9.00;100.00;100725.13;5027540;28;20043;-65
2023/12/28 00:39:31;;;;;;;2.30;2.10;;;;;;;8.99;100.00;100723.38;5027732;28;20380;-65
2023/12/28 00:41:56;;;;;;;2.97;2.20;;;;;;;9.03;100.00;100721.78;5027288;28;20024;-65
2023/12/28 00:44:21;;;;;;;3.30;1.88;;;;;;;9.03;100.00;100734.69;5027529;28;20080;-65
2023/12/28 00:46:46;;;;;;;2.42;2.13;;;;;;;9.00;100.00;100729.41;5027381;28;20500;-65
2023/12/28 00:49:11;;;;;;;2.53;1.98;;;;;;;9.02;100.00;100730.38;5027007;28;20075;-65
2023/12/28 00:51:37;;;;;;;2.38;2.10;;;;;;;9.04;100.00;100740.75;5026862;28;20040;-65
2023/12/28 00:54:02;;;;;;;2.78;2.28;;;;;;;8.98;100.00;100733.66;5027696;28;20374;-65
2023/12/28 00:56:27;;;;;;;2.97;2.53;;;;;;;8.96;100.00;100746.53;5025978;28;20043;-65
2023/12/28 00:58:53;;;;;;;2.75;2.25;;;;;;;8.96;100.00;100743.06;5027647;28;20018;-65
2023/12/28 01:01:18;;;;;;;5.70;2.35;;;;;;;8.94;100.00;100747.31;5027407;28;20108;-65
2023/12/28 01:03:43;;;;;;;2.85;1.92;;;;;;;8.97;100.00;100747.41;5027449;28;20028;-65
2023/12/28 01:06:08;;;;;;;2.55;2.00;;;;;;;8.92;100.00;100746.38;5026663;28;20389;-65
2023/12/28 01:08:34;;;;;;;2.67;1.80;;;;;;;8.93;100.00;100761.03;5027046;28;20491;-65
2023/12/28 01:11:00;;;;;;;3.80;1.77;;;;;;;8.97;100.00;100762.91;5027478;28;20354;-65
2023/12/28 01:13:25;;;;;;;3.42;2.22;;;;;;;9.00;100.00;100757.84;5027326;28;20200;-65
2023/12/28 01:15:51;;;;;;;3.10;2.33;;;;;;;8.97;100.00;100750.00;5027193;28;20032;-65
2023/12/28 01:18:16;;;;;;;2.50;2.30;;;;;;;8.96;100.00;100758.59;5027079;28;20640;-65
2023/12/28 01:20:41;;;;;;;2.88;1.83;;;;;;;8.97;100.00;100770.66;5027149;28;20031;-65
2023/12/28 01:23:07;;;;;;;3.65;2.15;;;;;;;9.00;100.00;100765.59;5027241;28;20025;-65
2023/12/28 01:25:32;;;;;;;4.00;2.10;;;;;;;8.98;100.00;100762.97;5027273;28;20027;-65
2023/12/28 01:27:57;;;;;;;3.78;2.15;;;;;;;8.99;100.00;100771.63;5027377;28;20025;-65
2023/12/28 01:30:22;;;;;;;2.90;2.03;;;;;;;9.00;100.00;100771.66;5026156;28;20021;-65
2023/12/28 01:32:48;;;;;;;3.58;1.83;;;;;;;9.00;100.00;100770.78;5026338;28;20029;-65
2023/12/28 01:35:13;;;;;;;2.63;2.08;;;;;;;9.07;100.00;100774.47;5026795;28;20025;-65
2023/12/28 01:37:38;;;;;;;4.82;1.70;;;;;;;9.03;100.00;100765.72;5027200;28;20028;-64
2023/12/28 01:40:04;;;;;;;4.07;1.88;;;;;;;9.03;100.00;100770.03;5026938;28;20021;-65
2023/12/28 01:42:31;;;;;;;2.75;2.00;;;;;;;9.04;100.00;100787.28;5027296;28;20411;-65
2023/12/28 01:44:57;;;;;;;3.15;1.77;;;;;;;9.02;100.00;100776.88;5026107;28;20120;-65
2023/12/28 01:47:24;;;;;;;3.80;1.92;;;;;;;9.01;100.00;100791.50;5027095;28;20033;-65
2023/12/28 01:49:49;;;;;;;6.82;2.00;;;;;;;9.02;100.00;100779.47;5026971;28;20024;-65
2023/12/28 01:52:15;;;;;;;2.80;1.98;;;;;;;9.00;100.00;100786.28;5025735;28;20123;-65
2023/12/28 01:54:40;;;;;;;4.38;2.00;;;;;;;9.04;100.00;100787.28;5026862;28;20025;-64
2023/12/28 01:57:06;;;;;;;3.30;1.80;;;;;;;9.02;100.00;100779.47;5026534;28;20128;-64
2023/12/28 01:59:31;;;;;;;3.00;1.65;;;;;;;9.00;100.00;100788.88;5026794;28;20017;-65
2023/12/28 02:01:57;;;;;;;3.85;1.90;;;;;;;8.98;100.00;100787.94;5027150;28;20032;-64
2023/12/28 02:04:28;;;;;;;4.80;1.95;;;;;;;9.00;100.00;100786.28;5028354;28;20025;-64
2023/12/28 02:06:59;;;;;;;4.15;2.30;;;;;;;9.01;100.00;100788.06;5030840;28;20025;-65
2023/12/28 02:09:25;;;;;;;;;;;;;;;8.99;100.00;100787.13;5030737;28;20136;-65
2023/12/28 02:11:51;;;;;;;5.60;2.00;;;;;;;8.98;100.00;100780.19;5030365;28;20008;-65
2023/12/28 02:14:16;;;;;;;2.75;1.90;;;;;;;8.94;100.00;100788.66;5030324;28;20155;-65
2023/12/28 02:16:49;;;;;;;3.90;2.05;;;;;;;8.94;100.00;100786.06;5030716;28;20556;-65
2023/12/28 02:19:45;;;;;;;2.80;1.80;;;;;;;8.88;100.00;100782.44;5030070;28;20422;-64
2023/12/28 02:22:17;;;;;;;5.28;2.30;;;;;;;8.91;100.00;100791.09;5030358;28;20024;-65
2023/12/28 02:25:05;;;;;;;2.92;1.83;;;;;;;8.91;100.00;100784.25;5029943;28;20032;-65
2023/12/28 02:27:31;;;;;;;4.03;1.90;;;;;;;8.88;100.00;100786.72;5017992;28;20108;-65
2023/12/28 02:29:57;;;;;;;3.58;2.00;;;;;;;8.86;100.00;100784.06;5030009;28;20091;-65
2023/12/28 02:32:32;;;;;;;6.57;2.30;;;;;;;8.86;100.00;100789.25;5029903;28;20017;-65
2023/12/28 02:35:04;;;;;;;4.70;2.00;;;;;;;8.89;100.00;100788.47;5028762;28;20470;-64
2023/12/28 02:37:32;;;;;;;3.92;1.88;;;;;;;8.91;100.00;100780.75;5030832;28;20462;-65
2023/12/28 02:39:58;;;;;;;5.07;1.95;;;;;;;8.91;100.00;100783.34;5029503;28;20125;-65
2023/12/28 02:42:23;;;;;;;5.50;1.63;;;;;;;8.86;100.00;100778.91;5030380;28;20112;-65
2023/12/28 02:44:50;;;;;;;4.28;2.30;;;;;;;8.86;100.00;100785.78;5029688;28;20041;-65
2023/12/28 02:47:15;;;;;;;3.38;1.73;;;;;;;8.82;100.00;100781.28;5029866;28;20037;-65
2023/12/28 02:49:40;;;;;;;3.33;1.75;;;;;;;8.86;100.00;100778.91;5029543;28;20029;-65
2023/12/28 02:52:05;;;;;;;2.83;1.55;;;;;;;8.86;100.00;100786.66;5030177;28;20554;-65
2023/12/28 02:54:31;;;;;;;4.88;2.15;;;;;;;8.85;100.00;100782.28;5029929;28;20017;-65
2023/12/28 02:56:56;;;;;;;3.53;1.70;;;;;;;8.87;100.00;100775.50;5030017;28;20755;-64
2023/12/28 02:59:21;;;;;;;4.75;1.73;;;;;;;8.92;100.00;100770.50;5029524;28;20029;-65
2023/12/28 03:01:46;;;;;;;4.63;2.00;;;;;;;8.89;100.00;100768.69;5029587;28;20056;-65
2023/12/28 03:04:12;;;;;;;3.75;2.20;;;;;;;8.84;100.00;100754.69;5016337;28;20029;-65
2023/12/28 03:06:40;;;;;;;3.70;1.80;;;;;;;8.89;100.00;100765.19;5029587;28;20025;-65
2023/12/28 03:09:05;;;;;;;4.22;2.17;;;;;;;8.87;100.00;100754.81;5028946;28;20037;-65
2023/12/28 03:11:30;;;;;;;3.85;1.90;;;;;;;8.87;100.00;100764.25;5029623;28;20021;-65
2023/12/28 03:13:55;;;;;;;3.15;1.60;;;;;;;8.87;100.00;100749.66;5029028;28;20087;-65
2023/12/28 03:16:21;;;;;;;5.25;1.70;;;;;;;8.92;100.00;100767.03;5028998;28;20024;-65
2023/12/28 03:18:46;;;;;;;5.32;1.50;;;;;;;8.95;100.00;100756.81;5028947;28;20301;-65
2023/12/28 03:21:11;;;;;;;3.55;1.75;;;;;;;8.96;100.00;100769.78;5029267;28;20409;-64
2023/12/28 03:23:37;;;;;;;3.67;1.92;;;;;;;8.97;100.00;100756.06;5029078;28;20013;-64
2023/12/28 03:26:02;;;;;;;2.47;1.50;;;;;;;8.97;100.00;100761.22;5029315;28;20034;-65
2023/12/28 03:28:27;;;;;;;5.00;1.80;;;;;;;8.96;100.00;100764.63;5027995;28;20092;-65
2023/12/28 03:30:52;;;;;;;3.53;1.95;;;;;;;9.00;100.00;100771.66;5028968;28;20040;-64
2023/12/28 03:33:18;;;;;;;4.30;1.90;;;;;;;8.97;100.00;100778.44;5028776;28;20239;-65
2023/12/28 03:35:43;;;;;;;4.78;1.38;;;;;;;9.02;100.00;100789.81;5029376;28;20047;-65
2023/12/28 03:38:08;;;;;;;5.05;1.70;;;;;;;9.05;100.00;100782.16;5028136;28;20041;-65
2023/12/28 03:40:33;;;;;;;4.13;1.52;;;;;;;9.06;100.00;100791.69;5029041;28;20083;-65
2023/12/28 03:42:59;;;;;;;3.38;1.70;;;;;;;9.07;100.00;100787.38;5028755;28;20445;-65
2023/12/28 03:45:24;;;;;;;5.15;1.70;;;;;;;9.09;100.00;100775.41;5028315;28;20099;-65
2023/12/28 03:47:51;;;;;;;6.75;1.63;;;;;;;9.09;100.00;100781.47;5028189;28;20021;-65
2023/12/28 03:50:16;;;;;;;4.53;1.67;;;;;;;9.09;100.00;100776.28;5028998;28;20056;-65
2023/12/28 03:52:41;;;;;;;4.63;2.08;;;;;;;9.15;100.00;100774.75;5028552;28;20492;-65
2023/12/28 03:55:07;;;;;;;4.05;1.73;;;;;;;9.21;100.00;100762.94;5029000;28;20030;-65
2023/12/28 03:57:32;;;;;;;4.25;1.55;;;;;;;9.24;100.00;100780.28;5028831;28;20097;-65
2023/12/28 03:59:58;;;;;;;3.97;1.38;;;;;;;9.24;100.00;100768.25;5028700;28;20444;-65
2023/12/28 04:02:24;;;;;;;4.15;1.42;;;;;;;9.26;100.00;100763.13;5027900;28;20017;-65
2023/12/28 04:04:49;;;;;;;8.23;1.80;;;;;;;9.29;100.00;100768.38;5028895;28;20029;-65
2023/12/28 04:07:16;;;;;;;6.40;1.60;;;;;;;9.27;100.00;100770.03;5027716;28;20033;-65
2023/12/28 04:09:41;;;;;;;3.13;1.00;;;;;;;9.28;100.00;100773.50;5028399;28;20104;-65
2023/12/28 04:12:07;;;;;;;7.40;1.63;;;;;;;9.33;100.00;100767.69;5027880;28;20171;-65
2023/12/28 04:14:32;;;;;;;4.57;1.30;;;;;;;9.32;100.00;100789.19;5027989;28;20059;-65
2023/12/28 04:16:57;;;;;;;5.53;1.83;;;;;;;9.35;100.00;100773.78;5027710;28;20351;-64
2023/12/28 04:19:22;;;;;;;6.57;1.88;;;;;;;9.36;100.00;100772.97;5028762;28;20373;-65
2023/12/28 04:21:48;;;;;;;4.90;1.50;;;;;;;9.39;100.00;100769.59;5028184;28;20025;-63
2023/12/28 04:24:13;;;;;;;7.30;1.80;;;;;;;9.40;100.00;100780.81;5028312;28;20025;-64
2023/12/28 04:26:38;;;;;;;6.30;1.60;;;;;;;9.40;100.00;100780.81;5027382;28;20511;-65
2023/12/28 04:29:03;;;;;;;5.53;1.45;;;;;;;9.37;100.00;100779.88;5027864;28;20041;-65
2023/12/28 04:31:29;;;;;;;4.45;1.52;;;;;;;9.43;100.00;100760.22;5027502;28;20029;-65
2023/12/28 04:33:54;;;;;;;6.43;1.83;;;;;;;9.45;100.00;100772.41;5027475;28;20041;-65
2023/12/28 04:36:19;;;;;;;5.45;1.58;;;;;;;9.42;100.00;100761.06;5027844;28;20043;-65
2023/12/28 04:38:45;;;;;;;6.20;1.60;;;;;;;9.43;100.00;100757.66;5027157;28;20099;-65
2023/12/28 04:41:11;;;;;;;5.30;1.77;;;;;;;9.41;100.00;100773.13;5027782;28;20033;-65
2023/12/28 04:43:36;;;;;;;9.60;1.70;;;;;;;9.39;100.00;100774.75;5027667;28;20033;-65
2023/12/28 04:46:03;;;;;;;4.20;1.27;;;;;;;9.44;100.00;100767.19;5027610;28;20047;-65
2023/12/28 04:48:29;;;;;;;5.40;1.50;;;;;;;9.44;100.00;100787.88;5027006;28;20034;-65
2023/12/28 04:50:54;;;;;;;4.55;1.90;;;;;;;9.41;100.00;100780.00;5026541;28;20033;-65
2023/12/28 04:53:19;;;;;;;4.60;1.45;;;;;;;9.42;100.00;100772.31;5027386;28;20454;-65
2023/12/28 04:55:44;;;;;;;6.65;1.85;;;;;;;9.42;100.00;100764.56;5027542;28;20036;-65
2023/12/28 04:58:11;;;;;;;6.78;1.75;;;;;;;9.43;100.00;100775.75;5027530;28;20148;-65
2023/12/28 05:00:37;;;;;;;7.28;2.40;;;;;;;9.39;100.00;100769.59;5027048;28;20397;-65
2023/12/28 05:03:02;;;;;;;9.35;1.70;;;;;;;9.41;100.00;100777.44;5027460;28;20032;-65
2023/12/28 05:05:27;;;;;;;6.65;1.83;;;;;;;9.46;100.00;100786.22;5027772;28;20044;-65
2023/12/28 05:07:53;;;;;;;5.63;1.65;;;;;;;9.45;100.00;100784.44;5027001;28;20017;-65
2023/12/28 05:10:18;;;;;;;10.02;2.10;;;;;;;9.54;100.00;100802.91;5026706;28;20033;-65
2023/12/28 05:12:43;;;;;;;9.18;2.08;;;;;;;9.53;100.00;100803.72;5027267;28;20445;-64
2023/12/28 05:15:09;;;;;;;7.18;1.50;;;;;;;9.50;100.00;100806.19;5027386;28;20029;-65
2023/12/28 05:17:34;;;;;;;6.63;1.75;;;;;;;9.46;100.00;100802.59;5026953;28;20397;-65
2023/12/28 05:20:00;;;;;;;6.47;1.80;;;;;;;9.47;100.00;100819.03;5027219;28;20040;-65
2023/12/28 05:22:25;;;;;;;9.32;2.35;;;;;;;9.52;100.00;100796.78;5027010;28;20036;-65
2023/12/28 05:24:50;;;;;;;7.35;1.73;;;;;;;9.51;100.00;100784.69;5026938;28;20057;-64
2023/12/28 05:27:15;;;;;;;7.45;1.52;;;;;;;9.53;100.00;100777.88;5026586;28;20014;-65
2023/12/28 05:29:41;;;;;;;6.13;1.85;;;;;;;9.59;100.00;100772.88;5027652;28;20036;-65
2023/12/28 05:32:06;;;;;;;8.52;2.28;;;;;;;9.55;100.00;100783.09;5025447;28;20214;-65
2023/12/28 05:34:31;;;;;;;11.10;2.40;;;;;;;9.47;100.00;100773.34;5027395;28;20043;-65
2023/12/28 05:36:57;;;;;;;7.97;1.75;;;;;;;9.45;100.00;100789.63;5026945;28;20025;-65
2023/12/28 05:39:22;;;;;;;7.32;1.70;;;;;;;9.43;100.00;100791.28;5028479;28;20022;-65
2023/12/28 05:41:50;;;;;;;7.93;2.35;;;;;;;9.42;100.00;100784.34;5030797;28;20130;-65
2023/12/28 05:44:15;;;;;;;8.43;2.30;;;;;;;9.40;100.00;100805.00;5031180;28;20136;-65
2023/12/28 05:46:40;;;;;;;13.27;2.40;;;;;;;9.37;100.00;100792.81;5030779;28;20112;-65
2023/12/28 05:49:06;;;;;;;8.68;2.00;;;;;;;9.35;100.00;100789.28;5030488;28;20128;-64
2023/12/28 05:51:38;;;;;;;6.50;1.88;;;;;;;9.37;100.00;100810.06;5030816;28;20497;-64
2023/12/28 05:54:03;;;;;;;9.73;2.20;;;;;;;9.41;100.00;100803.28;5031170;28;20416;-65
2023/12/28 05:56:28;;;;;;;8.40;1.75;;;;;;;9.42;100.00;100807.63;5030562;28;20029;-65
2023/12/28 05:58:53;;;;;;;8.00;1.67;;;;;;;9.45;100.00;100800.84;5031236;28;20432;-65
2023/12/28 06:01:19;;;;;;;5.68;1.65;;;;;;;9.44;100.00;100809.47;5030599;28;20029;-65
2023/12/28 06:03:45;;;;;;;9.10;1.90;;;;;;;9.42;100.00;100818.88;5030216;28;20044;-65
2023/12/28 06:06:10;;;;;;;8.43;1.90;;;;;;;9.49;100.00;100807.03;5030574;28;20021;-65
2023/12/28 06:08:35;;;;;;;8.95;1.83;;;;;;;9.46;100.00;100804.34;5030497;28;20044;-65
2023/12/28 06:11:00;;;;;;;6.45;2.38;;;;;;;9.47;100.00;100821.59;5030317;28;20060;-65
2023/12/28 06:13:26;;;;;;;5.57;1.58;;;;;;;9.48;100.00;100831.13;5030142;28;20053;-65
2023/12/28 06:15:51;;;;;;;7.75;2.08;;;;;;;9.48;100.00;100820.75;5030347;28;20025;-65
2023/12/28 06:18:16;;;;;;;11.57;2.35;;;;;;;9.54;100.00;100805.47;5029979;28;20465;-65
2023/12/28 06:20:42;;;;;;;9.05;2.05;;;;;;;9.48;100.00;100842.34;5030093;28;20057;-65
2023/12/28 06:23:08;;;;;;;4.00;1.35;;;;;;;9.47;100.00;100831.94;5030666;28;20025;-65
2023/12/28 06:25:33;;;;;;;9.70;2.17;;;;;;;9.46;100.00;100838.81;5029711;28;20036;-65
2023/12/28 06:27:59;;;;;;;4.53;1.60;;;;;;;9.51;100.00;100831.25;5029794;28;20041;-65
2023/12/28 06:30:24;;;;;;;9.25;1.98;;;;;;;9.51;100.00;100814.84;5030158;28;20026;-65
2023/12/28 06:32:49;;;;;;;7.95;1.65;;;;;;;9.51;100.00;100831.25;5030344;28;20503;-65
2023/12/28 06:35:14;;;;;;;7.75;2.28;;;;;;;9.49;100.00;100833.78;5029640;28;20068;-65
2023/12/28 06:37:42;;;;;;;13.77;2.33;;;;;;;9.45;100.00;100820.66;5029703;28;20022;-65
2023/12/28 06:40:08;;;;;;;9.75;2.50;;;;;;;9.43;100.00;100827.47;5029780;28;20526;-65
2023/12/28 06:42:33;;;;;;;7.85;1.42;;;;;;;9.41;100.00;100832.59;5030170;28;20025;-65
2023/12/28 06:44:58;;;;;;;12.82;2.28;;;;;;;9.41;100.00;100845.53;5029568;28;20050;-65
2023/12/28 06:47:23;;;;;;;7.55;1.92;;;;;;;9.45;100.00;100836.19;5029459;28;20446;-65
2023/12/28 06:49:49;;;;;;;9.23;2.05;;;;;;;9.44;100.00;100839.59;5029352;28;20029;-65
2023/12/28 06:52:14;;;;;;;11.38;2.15;;;;;;;9.45;100.00;100836.19;5025303;28;20033;-65
2023/12/28 06:54:40;;;;;;;9.35;1.75;;;;;;;9.46;100.00;100838.81;5033525;28;20021;-65
2023/12/28 06:57:05;;;;;;;11.75;2.53;;;;;;;9.44;100.00;100840.50;5034472;28;20037;-65
2023/12/28 06:59:30;;;;;;;8.70;2.25;;;;;;;9.41;100.00;100830.00;5045890;28;20009;-65
2023/12/28 07:01:55;;;;;;;6.90;1.70;;;;;;;9.39;100.00;100848.91;5034171;28;20056;-64
2023/12/28 07:04:21;;;;;;;9.38;2.22;;;;;;;9.35;100.00;100835.84;5039538;28;20798;-65
2023/12/28 07:06:46;;;;;;;7.70;2.33;;;;;;;9.32;100.00;100846.06;5028525;28;20025;-65
2023/12/28 07:09:11;;;;;;;13.05;2.72;;;;;;;9.28;100.00;100844.22;5027036;28;20025;-65
2023/12/28 07:11:36;;;;;;;7.88;1.70;;;;;;;9.32;100.00;100843.50;5027390;28;20540;-65
2023/12/28 07:14:02;;;;;;;12.43;2.17;;;;;;;9.30;100.00;100852.03;5026788;28;20022;-64
2023/12/28 07:16:28;;;;;;;7.85;1.80;;;;;;;9.28;100.00;100839.06;5027168;28;20033;-65
2023/12/28 07:18:53;;;;;;;9.10;2.60;;;;;;;9.27;100.00;100847.63;5039951;28;20029;-65
2023/12/28 07:21:18;;;;;;;10.32;2.55;;;;;;;9.25;100.00;100849.25;5035124;28;20305;-65
2023/12/28 07:23:48;;;;;;;9.23;1.70;;;;;;;9.25;100.00;100857.00;5030845;28;20024;-65
2023/12/28 07:26:14;;;;;;;14.35;2.75;;;;;;;9.24;100.00;100863.91;5019649;28;20044;-65
2023/12/28 07:28:42;;;;;;;12.63;2.25;;;;;;;9.21;100.00;100863.78;5028579;28;20025;-65
2023/12/28 07:31:07;;;;;;;13.40;2.28;;;;;;;9.21;100.00;100881.00;5028730;28;20716;-65
2023/12/28 07:33:33;;;;;;;12.05;2.13;;;;;;;9.23;100.00;100869.00;5029826;28;20284;-65
2023/12/28 07:36:02;;;;;;;9.18;1.73;;;;;;;9.22;100.00;100880.19;5027804;28;20036;-64
2023/12/28 07:38:27;;;;;;;11.65;2.92;;;;;;;9.29;100.00;100887.34;5028070;28;20025;-65
2023/12/28 07:40:52;;;;;;;9.45;2.45;;;;;;;9.29;100.00;100886.44;5029166;28;20477;-65
2023/12/28 07:43:18;;;;;;;8.13;1.98;;;;;;;9.29;100.00;100894.22;5028310;28;20021;-64
2023/12/28 07:45:43;;;;;;;10.48;2.33;;;;;;;9.26;100.00;100882.06;5027501;28;20344;-65
2023/12/28 07:48:08;;;;;;;10.10;2.25;;;;;;;9.29;100.00;100886.44;5028075;28;20436;-65
2023/12/28 07:50:34;;;;;;;10.65;2.20;;;;;;;9.26;100.00;100905.34;5028378;28;20025;-65
2023/12/28 07:53:00;;;;;;;9.18;1.80;;;;;;;9.23;100.00;100903.50;5029815;28;20488;-64
2023/12/28 07:55:26;;;;;;;10.05;2.85;;;;;;;9.23;100.00;100906.09;5029666;28;20059;-65
2023/12/28 07:57:51;;;;;;;11.25;2.20;;;;;;;9.24;100.00;100904.41;5030210;28;20020;-65
2023/12/28 08:00:17;;;;;;;13.63;3.03;;;;;;;9.24;100.00;100901.81;5027976;28;20029;-65
2023/12/28 08:02:43;;;;;;;12.98;2.10;;;;;;;9.29;100.00;100900.28;5023819;28;20424;-65
2023/12/28 08:05:08;;;;;;;11.23;2.30;;;;;;;9.29;100.00;100897.69;5025831;28;20072;-65
2023/12/28 08:07:33;;;;;;;11.10;2.38;;;;;;;9.29;100.00;100908.03;5028054;28;20112;-64
2023/12/28 08:09:59;;;;;;;7.50;1.70;;;;;;;9.28;100.00;100914.03;5028416;28;20025;-65
2023/12/28 08:12:27;;;;;;;9.85;2.35;;;;;;;9.28;100.00;100916.63;5028229;28;20464;-65
2023/12/28 08:14:52;;;;;;;8.88;2.30;;;;;;;9.28;100.00;100924.38;5027378;28;20029;-65
2023/12/28 08:17:17;;;;;;;12.45;2.33;;;;;;;9.29;100.00;100930.41;5041484;28;20496;-65
2023/12/28 08:19:42;;;;;;;11.65;2.13;;;;;;;9.32;100.00;100912.44;5021649;28;20433;-65
2023/12/28 08:22:08;;;;;;;12.35;2.83;;;;;;;9.35;100.00;100915.16;5029941;28;20040;-65
2023/12/28 08:24:33;;;;;;;14.65;2.83;;;;;;;9.33;100.00;100912.50;5023245;28;20033;-65
2023/12/28 08:26:59;;;;;;;8.27;2.20;;;;;;;9.33;100.00;100915.09;5024506;28;20049;-65
2023/12/28 08:29:25;;;;;;;12.73;2.47;;;;;;;9.35;100.00;100905.66;5022499;28;20079;-65
2023/12/28 08:31:51;;;;;;;9.75;2.30;;;;;;;9.33;100.00;100915.09;5023976;28;20021;-65
2023/12/28 08:34:16;;;;;;;12.30;2.47;;;;;;;9.34;100.00;100915.97;5026733;28;20036;-65
2023/12/28 08:36:41;;;;;;;10.07;2.35;;;;;;;9.36;100.00;100922.97;5027068;28;20215;-65
2023/12/28 08:39:07;;;;;;;8.20;2.08;;;;;;;9.34;100.00;100911.69;5021564;28;20025;-65
2023/12/28 08:41:32;;;;;;;8.93;2.30;;;;;;;9.33;100.00;100920.28;5025181;28;20080;-65
2023/12/28 08:43:57;;;;;;;9.52;2.53;;;;;;;9.35;100.00;100926.34;5025619;28;20469;-64
2023/12/28 08:46:24;;;;;;;12.05;3.30;;;;;;;9.42;100.00;100934.38;5023881;28;20029;-64
2023/12/28 08:48:50;;;;;;;12.32;2.45;;;;;;;9.42;100.00;100924.03;5024973;28;20028;-65
2023/12/28 08:51:15;;;;;;;10.93;2.00;;;;;;;9.43;100.00;100925.78;5030473;28;20268;-65
2023/12/28 08:53:42;;;;;;;10.40;2.25;;;;;;;9.43;100.00;100934.41;5029078;28;20057;-65
2023/12/28 08:56:19;;;;;;;10.30;3.30;;;;;;;9.45;100.00;100924.13;5028757;28;20536;-65
2023/12/28 08:58:46;;;;;;;12.68;2.90;;;;;;;9.46;100.00;100944.03;5023385;28;20151;-65
2023/12/28 09:01:21;;;;;;;9.95;2.08;;;;;;;9.47;100.00;100944.06;5029294;28;20223;-65
2023/12/28 09:03:48;;;;;;;16.30;2.60;;;;;;;9.49;100.00;100951.88;5029425;28;20032;-65
2023/12/28 09:06:14;;;;;;;11.90;2.10;;;;;;;9.50;100.00;100948.47;5028356;28;20048;-65
2023/12/28 09:08:42;;;;;;;9.95;2.33;;;;;;;9.51;100.00;100965.78;5039118;28;20033;-65
2023/12/28 09:11:09;;;;;;;10.48;2.20;;;;;;;9.49;100.00;100968.31;5027595;28;20026;-64
2023/12/28 09:13:35;;;;;;;13.30;3.00;;;;;;;9.48;100.00;100973.38;5028663;28;20025;-65
2023/12/28 09:16:00;;;;;;;11.75;2.58;;;;;;;9.46;100.00;100967.28;5029769;28;20496;-65
2023/12/28 09:18:25;;;;;;;12.02;2.28;;;;;;;9.44;100.00;100979.28;5025597;28;20374;-65
2023/12/28 09:20:50;;;;;;;11.98;2.53;;;;;;;9.44;100.00;100979.28;5030727;28;20032;-65
2023/12/28 09:23:16;;;;;;;9.55;1.90;;;;;;;9.46;100.00;100977.66;5026755;28;20424;-65
2023/12/28 09:25:41;;;;;;;8.18;1.65;;;;;;;9.48;100.00;100981.16;5029648;28;20036;-65
2023/12/28 09:28:06;;;;;;;11.52;2.67;;;;;;;9.52;100.00;100987.31;5022310;28;20056;-64
2023/12/28 09:30:32;;;;;;;11.07;2.10;;;;;;;9.52;100.00;100977.88;5023075;28;20033;-65
2023/12/28 09:32:57;;;;;;;15.80;2.70;;;;;;;9.51;100.00;100970.06;5024439;28;20051;-65
2023/12/28 09:35:22;;;;;;;11.00;2.33;;;;;;;9.53;100.00;100979.66;5023588;28;20504;-65
2023/12/28 09:37:48;;;;;;;10.48;2.45;;;;;;;9.59;100.00;100979.88;5026255;28;20022;-65
2023/12/28 09:40:15;;;;;;;13.35;2.35;;;;;;;9.57;100.00;100981.50;5020035;28;20021;-65
2023/12/28 09:42:51;;;;;;;14.77;2.50;;;;;;;9.55;100.00;100997.81;5024339;28;20505;-65
2023/12/28 09:45:17;;;;;;;11.32;2.00;;;;;;;9.55;100.00;100990.91;5023510;28;20053;-65
2023/12/28 09:47:43;;;;;;;18.33;3.15;;;;;;;9.55;100.00;100985.75;5016832;28;20075;-64
2023/12/28 09:50:10;;;;;;;10.80;2.22;;;;;;;9.57;100.00;100998.75;5023245;28;20052;-65
2023/12/28 09:52:35;;;;;;;11.40;2.40;;;;;;;9.58;100.00;100996.22;5028488;28;20382;-65
2023/12/28 09:55:01;;;;;;;12.02;3.10;;;;;;;9.58;100.00;100998.81;5026434;28;20025;-65
2023/12/28 09:57:26;;;;;;;16.38;2.88;;;;;;;9.56;100.00;101012.50;5025542;28;20398;-65
2023/12/28 09:59:52;;;;;;;8.98;2.25;;;;;;;9.56;100.00;101010.81;5023412;28;20026;-65
2023/12/28 10:02:18;;;;;;;10.10;2.17;;;;;;;9.58;100.00;101019.50;5034889;28;20040;-65
2023/12/28 10:04:43;;;;;;;8.55;2.40;;;;;;;9.53;100.00;101021.03;5028023;28;20033;-65
2023/12/28 10:07:08;;;;;;;13.68;2.80;;;;;;;9.54;100.00;101015.03;5026531;28;20043;-65
2023/12/28 10:09:34;;;;;;;11.15;2.33;;;;;;;9.51;100.00;101014.91;5025330;28;20025;-64
2023/12/28 10:11:59;;;;;;;15.68;2.10;;;;;;;9.49;100.00;101020.03;5024778;28;20040;-65
2023/12/28 10:14:25;;;;;;;14.65;2.15;;;;;;;9.52;100.00;101019.25;5022356;28;20463;-65
2023/12/28 10:16:50;;;;;;;13.15;2.88;;;;;;;9.56;100.00;101015.97;5021862;28;20037;-65
2023/12/28 10:19:21;;;;;;;8.05;1.88;;;;;;;9.55;100.00;101014.19;5024549;28;20053;-65
2023/12/28 10:21:47;;;;;;;11.68;2.72;;;;;;;9.57;100.00;101022.91;5025910;28;20461;-65
2023/12/28 10:24:13;;;;;;;12.45;2.78;;;;;;;9.57;100.00;101011.69;5019314;28;20018;-65
2023/12/28 10:26:38;;;;;;;9.40;2.10;;;;;;;9.59;100.00;101005.75;5023228;28;20040;-65
2023/12/28 10:29:05;;;;;;;14.52;3.33;;;;;;;9.67;100.00;101018.09;5024995;28;20228;-65
2023/12/28 10:31:30;;;;;;;9.25;1.90;;;;;;;9.66;100.00;101017.19;5023285;28;20061;-65
2023/12/28 10:34:01;;;;;;;12.75;2.80;;;;;;;9.66;100.00;101016.34;5020866;28;20069;-65
2023/12/28 10:36:27;;;;;;;12.40;2.42;;;;;;;9.62;100.00;101007.59;5023225;28;20099;-65
2023/12/28 10:38:53;;;;;;;11.38;2.70;;;;;;;9.64;100.00;101012.81;5025562;28;20014;-65
2023/12/28 10:41:20;;;;;;;11.10;2.85;;;;;;;9.68;100.00;101012.09;5024987;28;20252;-65
2023/12/28 10:43:51;;;;;;;14.45;3.25;;;;;;;9.66;100.00;101004.25;5019099;28;20036;-64
2023/12/28 10:46:29;;;;;;;7.22;1.73;;;;;;;9.71;100.00;101004.47;5024855;28;20096;-64
2023/12/28 10:49:08;;;;;;;9.98;3.15;;;;;;;9.69;100.00;101001.81;5026451;28;20029;-65
2023/12/28 10:51:36;;;;;;;13.80;2.80;;;;;;;9.72;100.00;100986.41;5027279;28;20021;-65
2023/12/28 10:54:23;;;;;;;11.20;2.17;;;;;;;9.76;100.00;100997.75;5026124;28;20028;-65
2023/12/28 10:57:12;;;;;;;8.38;2.30;;;;;;;9.83;100.00;101012.69;5021301;28;20045;-65
2023/12/28 10:59:55;;;;;;;12.27;2.55;;;;;;;9.87;100.00;100997.28;5023703;28;20072;-65
2023/12/28 11:02:25;;;;;;;11.38;2.90;;;;;;;9.89;100.00;101003.38;5023005;28;20036;-65
2023/12/28 11:04:52;;;;;;;14.45;2.97;;;;;;;9.90;100.00;101000.84;5019753;28;20014;-64
2023/12/28 11:07:18;;;;;;;13.85;2.80;;;;;;;9.94;100.00;101001.84;5029361;28;20033;-65
2023/12/28 11:09:44;;;;;;;14.07;3.15;;;;;;;9.94;100.00;100991.50;5024333;28;20109;-65
2023/12/28 11:12:10;;;;;;;16.25;3.53;;;;;;;9.95;100.00;100988.06;5019810;28;20036;-65
2023/12/28 11:14:39;;;;;;;17.88;3.00;;;;;;;9.93;100.00;100987.16;5026346;28;20096;-65
2023/12/28 11:17:05;;;;;;;12.65;2.80;;;;;;;9.95;100.00;100993.25;5030794;28;20555;-65
2023/12/28 11:19:32;;;;;;;12.23;2.90;;;;;;;9.92;100.00;100993.13;5024960;28;20021;-65